Time;durP1;ratioP1;P1;durP2;ratioP2;P2;SDS_P1;SDS_P2;PMS_P1;PMS_P2;Temp;Humidity;BMP_temperature;BMP_pressure;BME280_temperature;BME280_humidity;BME280_pressure;Samples;Min_cycle;Max_cycle;Signal;HPM_P1;HPM_P2
2023/11/09 00:02:03;;;;;;;0.40;0.40;;;3.30;99.90;;;;;;4993077;28;20310;-63
2023/11/09 00:04:29;;;;;;;0.80;0.80;;;3.30;99.90;;;;;;4992404;28;20450;-63
2023/11/09 00:06:54;;;;;;;0.43;0.40;;;3.30;99.90;;;;;;4992280;28;20550;-63
2023/11/09 00:09:20;;;;;;;0.30;0.30;;;3.30;99.90;;;;;;4992130;28;20180;-63
2023/11/09 00:11:46;;;;;;;0.63;0.63;;;3.20;99.90;;;;;;4992462;28;20175;-63
2023/11/09 00:14:16;;;;;;;1.67;1.58;;;3.30;99.90;;;;;;4992469;28;20741;-63
2023/11/09 00:16:42;;;;;;;2.47;2.35;;;3.40;99.90;;;;;;4992193;28;20191;-62
2023/11/09 00:19:08;;;;;;;0.50;0.50;;;3.40;99.90;;;;;;4992076;28;20184;-63
2023/11/09 00:21:33;;;;;;;0.60;0.60;;;3.50;99.90;;;;;;4992129;28;20226;-63
2023/11/09 00:23:59;;;;;;;0.50;0.50;;;3.40;99.90;;;;;;4992106;28;20211;-63
2023/11/09 00:26:25;;;;;;;0.50;0.40;;;3.30;99.90;;;;;;4992151;28;20259;-63
2023/11/09 00:28:51;;;;;;;1.27;1.27;;;3.30;99.90;;;;;;4991852;28;20176;-63
2023/11/09 00:31:19;;;;;;;0.30;0.30;;;3.20;99.90;;;;;;4992160;28;20180;-63
2023/11/09 00:33:45;;;;;;;0.63;0.63;;;3.20;99.90;;;;;;4992055;28;20658;-63
2023/11/09 00:36:11;;;;;;;9.70;0.83;;;3.20;99.90;;;;;;4991963;28;20211;-63
2023/11/09 00:38:37;;;;;;;0.50;0.50;;;3.20;99.90;;;;;;4992052;28;20180;-63
2023/11/09 00:41:03;;;;;;;0.45;0.45;;;3.10;99.90;;;;;;4992098;28;20168;-63
2023/11/09 00:43:29;;;;;;;2.63;0.50;;;3.30;99.90;;;;;;4992058;28;20593;-63
2023/11/09 00:45:55;;;;;;;0.88;0.80;;;3.30;99.90;;;;;;4992015;28;20172;-63
2023/11/09 00:48:21;;;;;;;0.30;0.30;;;3.30;99.90;;;;;;4991784;28;20660;-63
2023/11/09 00:50:47;;;;;;;1.07;1.07;;;3.40;99.90;;;;;;4991835;28;20234;-63
2023/11/09 00:53:12;;;;;;;0.40;0.40;;;3.30;99.90;;;;;;4991840;28;20937;-63
2023/11/09 00:55:38;;;;;;;0.40;0.40;;;3.20;99.90;;;;;;4992083;28;20230;-63
2023/11/09 00:58:05;;;;;;;0.50;0.50;;;3.10;99.90;;;;;;4991942;28;20215;-63
2023/11/09 01:00:30;;;;;;;0.73;0.73;;;3.10;99.90;;;;;;4991754;28;20538;-63
2023/11/09 01:02:56;;;;;;;0.30;0.30;;;3.10;99.90;;;;;;4991544;28;20673;-63
2023/11/09 01:05:21;;;;;;;2.50;1.50;;;3.10;99.90;;;;;;4991745;28;20219;-63
2023/11/09 01:07:47;;;;;;;0.40;0.40;;;3.10;99.90;;;;;;4991772;28;20175;-63
2023/11/09 01:10:13;;;;;;;1.57;0.63;;;3.10;99.90;;;;;;4991628;28;20172;-63
2023/11/09 01:12:39;;;;;;;2.50;0.80;;;3.30;99.90;;;;;;4991739;28;20251;-63
2023/11/09 01:15:05;;;;;;;0.60;0.60;;;3.30;99.90;;;;;;4992096;28;20469;-63
2023/11/09 01:17:30;;;;;;;0.50;0.50;;;3.30;99.90;;;;;;4991882;28;20242;-63
2023/11/09 01:19:56;;;;;;;1.70;0.97;;;3.40;99.90;;;;;;4992934;28;20179;-63
2023/11/09 01:22:22;;;;;;;0.93;0.90;;;3.30;99.90;;;;;;4995525;28;20251;-63
2023/11/09 01:24:48;;;;;;;0.30;0.30;;;3.40;99.90;;;;;;4995345;28;20223;-63
2023/11/09 01:27:13;;;;;;;0.40;0.40;;;3.40;99.90;;;;;;4995199;28;20187;-63
2023/11/09 01:29:39;;;;;;;0.50;0.50;;;3.40;99.90;;;;;;4995144;28;20255;-63
2023/11/09 01:32:05;;;;;;;0.43;0.43;;;3.40;99.90;;;;;;4995329;28;20172;-63
2023/11/09 01:34:31;;;;;;;0.40;0.40;;;3.40;99.90;;;;;;4994974;28;20278;-63
2023/11/09 01:36:57;;;;;;;1.13;1.13;;;3.40;99.90;;;;;;4995114;28;20168;-63
2023/11/09 01:39:23;;;;;;;0.40;0.40;;;3.30;99.90;;;;;;4995186;28;20183;-63
2023/11/09 01:41:49;;;;;;;0.40;0.40;;;3.20;99.90;;;;;;4995135;28;20168;-63
2023/11/09 01:44:15;;;;;;;0.43;0.43;;;3.30;99.90;;;;;;4994955;28;20306;-63
2023/11/09 01:46:43;;;;;;;1.40;1.30;;;3.40;99.90;;;;;;4994924;28;20268;-63
2023/11/09 01:49:11;;;;;;;1.48;1.40;;;3.40;99.90;;;;;;4994592;28;20180;-63
2023/11/09 01:51:38;;;;;;;0.43;0.40;;;3.40;99.90;;;;;;4994928;28;20173;-63
2023/11/09 01:54:05;;;;;;;1.02;0.52;;;3.30;99.90;;;;;;4994802;28;20290;-63
2023/11/09 01:56:31;;;;;;;0.70;0.70;;;3.30;99.90;;;;;;4994847;28;20202;-63
2023/11/09 01:58:57;;;;;;;0.57;0.57;;;3.20;99.90;;;;;;4994547;28;20681;-63
2023/11/09 02:01:25;;;;;;;0.30;0.30;;;3.10;99.90;;;;;;4994738;28;20426;-63
2023/11/09 02:03:52;;;;;;;0.98;0.98;;;3.10;99.90;;;;;;4994345;28;20455;-63
2023/11/09 02:06:19;;;;;;;0.43;0.43;;;3.20;99.90;;;;;;4994554;28;20176;-63
2023/11/09 02:08:45;;;;;;;0.98;0.95;;;3.20;99.90;;;;;;4994348;28;20179;-63
2023/11/09 02:11:10;;;;;;;0.80;0.80;;;3.20;99.90;;;;;;4994661;28;20274;-63
2023/11/09 02:13:36;;;;;;;0.40;0.40;;;3.30;99.90;;;;;;4994460;28;20460;-63
2023/11/09 02:16:03;;;;;;;0.40;0.40;;;3.30;99.90;;;;;;4994335;28;20180;-63
2023/11/09 02:18:31;;;;;;;0.50;0.50;;;3.20;99.90;;;;;;4994085;28;20183;-63
2023/11/09 02:20:57;;;;;;;0.43;0.43;;;3.20;99.90;;;;;;4994639;28;20562;-63
2023/11/09 02:23:23;;;;;;;0.80;0.80;;;3.10;99.90;;;;;;4994149;28;20207;-63
2023/11/09 02:25:53;;;;;;;0.30;0.30;;;3.20;99.90;;;;;;4994268;28;20176;-63
2023/11/09 02:28:20;;;;;;;0.50;0.40;;;3.20;99.90;;;;;;4993968;28;20168;-63
2023/11/09 02:30:45;;;;;;;0.60;0.60;;;3.20;99.90;;;;;;4993613;28;20180;-63
2023/11/09 02:33:11;;;;;;;0.40;0.40;;;3.20;99.90;;;;;;4993741;28;20264;-63
2023/11/09 02:35:38;;;;;;;1.20;1.20;;;3.30;99.90;;;;;;4994043;28;20172;-63
2023/11/09 02:38:04;;;;;;;0.70;0.70;;;3.30;99.90;;;;;;4994165;28;20898;-63
2023/11/09 02:40:30;;;;;;;0.88;0.88;;;3.40;99.90;;;;;;4993750;28;20198;-63
2023/11/09 02:42:56;;;;;;;0.40;0.40;;;3.30;99.90;;;;;;4993820;28;20203;-63
2023/11/09 02:45:22;;;;;;;1.02;1.02;;;3.30;99.90;;;;;;4993764;28;20966;-63
2023/11/09 02:47:47;;;;;;;0.45;0.45;;;3.20;99.90;;;;;;4993750;28;20262;-63
2023/11/09 02:50:14;;;;;;;0.40;0.40;;;3.30;99.90;;;;;;4993719;28;20268;-63
2023/11/09 02:52:41;;;;;;;0.60;0.60;;;3.40;99.90;;;;;;4993775;28;20606;-63
2023/11/09 02:55:08;;;;;;;2.55;1.10;;;3.50;99.90;;;;;;4993615;28;20172;-63
2023/11/09 02:57:34;;;;;;;0.68;0.68;;;3.50;99.90;;;;;;4993603;28;20175;-63
2023/11/09 03:00:03;;;;;;;0.50;0.50;;;3.50;99.90;;;;;;4993332;28;20579;-63
2023/11/09 03:02:28;;;;;;;0.50;0.50;;;3.40;99.90;;;;;;4993594;28;20247;-63
2023/11/09 03:04:54;;;;;;;0.60;0.60;;;3.30;99.90;;;;;;4993346;28;20617;-63
2023/11/09 03:07:19;;;;;;;0.30;0.30;;;3.20;99.90;;;;;;4993385;28;20229;-63
2023/11/09 03:09:45;;;;;;;0.40;0.40;;;3.20;99.90;;;;;;4993308;28;20177;-63
2023/11/09 03:12:11;;;;;;;0.30;0.30;;;3.20;99.90;;;;;;4993371;28;20604;-63
2023/11/09 03:14:36;;;;;;;0.53;0.53;;;3.30;99.90;;;;;;4993182;28;20211;-63
2023/11/09 03:17:06;;;;;;;0.40;0.40;;;3.40;99.90;;;;;;4993121;28;20638;-63
2023/11/09 03:19:33;;;;;;;2.80;2.30;;;3.30;99.90;;;;;;4993024;28;20172;-63
2023/11/09 03:21:58;;;;;;;0.30;0.30;;;3.20;99.90;;;;;;4993170;28;20176;-63
2023/11/09 03:24:24;;;;;;;0.40;0.40;;;3.30;99.90;;;;;;4992984;28;20235;-63
2023/11/09 03:26:50;;;;;;;0.53;0.53;;;3.30;99.90;;;;;;4992902;28;20172;-63
2023/11/09 03:29:15;;;;;;;2.03;1.93;;;3.40;99.90;;;;;;4992811;28;20175;-63
2023/11/09 03:31:42;;;;;;;0.57;0.47;;;3.40;99.90;;;;;;4992893;28;20171;-63
2023/11/09 03:34:08;;;;;;;0.40;0.40;;;3.40;99.90;;;;;;5025028;23;20234;-60
2023/11/09 03:36:34;;;;;;;0.40;0.40;;;3.40;99.90;;;;;;5012830;28;20657;-60
2023/11/09 03:39:00;;;;;;;0.30;0.30;;;3.50;99.90;;;;;;5012549;28;20623;-61
2023/11/09 03:41:26;;;;;;;0.30;0.30;;;3.40;99.90;;;;;;5012822;28;20172;-60
2023/11/09 03:43:53;;;;;;;0.37;0.37;;;3.40;99.90;;;;;;5011391;28;20222;-60
2023/11/09 03:46:21;;;;;;;0.52;0.52;;;3.40;99.90;;;;;;5012174;28;20719;-60
2023/11/09 03:48:47;;;;;;;0.63;0.63;;;3.30;99.90;;;;;;5012583;28;20337;-60
2023/11/09 03:51:12;;;;;;;0.40;0.40;;;3.30;99.90;;;;;;5012615;28;20695;-60
2023/11/09 03:53:39;;;;;;;2.90;1.70;;;3.30;99.90;;;;;;5012510;28;20948;-60
2023/11/09 03:56:04;;;;;;;0.52;0.52;;;3.30;99.90;;;;;;5012501;28;20258;-60
2023/11/09 03:58:30;;;;;;;0.37;0.37;;;3.50;99.90;;;;;;5012186;28;20262;-60
2023/11/09 04:00:57;;;;;;;0.30;0.30;;;3.40;99.90;;;;;;5012628;28;20183;-60
2023/11/09 04:03:23;;;;;;;0.95;0.73;;;3.50;99.90;;;;;;5012449;28;20219;-59
2023/11/09 04:05:48;;;;;;;12.27;0.70;;;3.60;99.90;;;;;;5012393;28;20614;-60
2023/11/09 04:08:14;;;;;;;0.97;0.60;;;3.70;99.90;;;;;;5012088;28;20174;-61
2023/11/09 04:10:40;;;;;;;0.70;0.70;;;3.70;99.90;;;;;;5012355;28;20190;-60
2023/11/09 04:13:05;;;;;;;0.40;0.40;;;3.70;99.90;;;;;;5012183;28;20200;-60
2023/11/09 04:15:31;;;;;;;1.03;1.03;;;3.70;99.90;;;;;;5012138;28;20422;-59
2023/11/09 04:17:57;;;;;;;0.40;0.40;;;3.60;99.90;;;;;;5012168;28;20186;-60
2023/11/09 04:20:23;;;;;;;0.50;0.50;;;3.70;99.90;;;;;;5012163;28;20175;-60
2023/11/09 04:22:48;;;;;;;0.50;0.50;;;3.80;99.90;;;;;;5012127;28;20187;-60
2023/11/09 04:25:14;;;;;;;0.60;0.60;;;3.70;99.90;;;;;;5012086;28;20176;-60
2023/11/09 04:27:43;;;;;;;0.80;0.80;;;3.60;99.90;;;;;;5011989;28;20250;-61
2023/11/09 04:30:15;;;;;;;0.38;0.38;;;3.80;99.90;;;;;;5011767;28;20464;-60
2023/11/09 04:32:41;;;;;;;0.73;0.73;;;3.80;99.90;;;;;;5012213;28;20168;-59
2023/11/09 04:35:08;;;;;;;0.40;0.40;;;3.80;99.90;;;;;;5011823;28;20571;-60
2023/11/09 04:37:35;;;;;;;0.40;0.40;;;3.80;99.90;;;;;;5011836;28;20233;-60
2023/11/09 04:40:12;;;;;;;0.40;0.40;;;3.80;99.90;;;;;;5011756;28;20179;-61
2023/11/09 04:42:39;;;;;;;0.32;0.32;;;3.70;99.90;;;;;;5011778;28;20236;-60
2023/11/09 04:45:11;;;;;;;0.40;0.40;;;3.60;99.90;;;;;;5011872;28;20211;-60
2023/11/09 04:47:41;;;;;;;0.73;0.73;;;3.50;99.90;;;;;;5011775;28;20589;-61
2023/11/09 04:50:13;;;;;;;0.40;0.40;;;3.50;99.90;;;;;;5011777;28;20263;-60
2023/11/09 04:52:44;;;;;;;0.40;0.40;;;3.60;99.90;;;;;;5011860;28;20406;-60
2023/11/09 04:55:12;;;;;;;0.35;0.35;;;3.70;99.90;;;;;;5014109;28;20582;-60
2023/11/09 05:08:38;;;;;;;0.88;0.70;;;3.80;99.90;;;;;;5015383;28;20257;-60
2023/11/09 05:11:04;;;;;;;0.40;0.40;;;3.90;99.90;;;;;;5015462;28;20207;-60
2023/11/09 05:13:29;;;;;;;0.50;0.50;;;3.90;99.90;;;;;;5015301;28;20219;-60
2023/11/09 05:15:55;;;;;;;0.50;0.50;;;3.80;99.90;;;;;;5015375;28;20707;-60
2023/11/09 05:18:21;;;;;;;0.60;0.60;;;3.80;99.90;;;;;;5015216;28;20313;-60
2023/11/09 05:20:48;;;;;;;0.30;0.30;;;3.80;99.90;;;;;;5015514;28;20214;-60
2023/11/09 05:23:14;;;;;;;0.50;0.50;;;3.80;99.90;;;;;;5015197;28;20203;-60
2023/11/09 05:25:41;;;;;;;0.30;0.30;;;3.80;99.90;;;;;;5014642;28;20238;-60
2023/11/09 05:28:07;;;;;;;0.65;0.65;;;3.80;99.90;;;;;;5015051;28;20176;-61
2023/11/09 05:30:34;;;;;;;0.40;0.40;;;3.80;99.90;;;;;;5015092;28;20172;-60
2023/11/09 05:33:00;;;;;;;0.55;0.55;;;3.80;99.90;;;;;;5014859;28;20282;-60
2023/11/09 05:35:25;;;;;;;0.40;0.40;;;3.80;99.90;;;;;;5015140;28;20210;-60
2023/11/09 05:37:51;;;;;;;0.97;0.70;;;3.70;99.90;;;;;;5014922;28;20707;-61
2023/11/09 05:40:20;;;;;;;0.30;0.30;;;3.80;99.90;;;;;;5014800;28;20187;-60
2023/11/09 05:42:46;;;;;;;0.40;0.40;;;3.90;99.90;;;;;;5014537;28;20183;-60
2023/11/09 05:45:13;;;;;;;15.33;0.80;;;3.90;99.90;;;;;;5014673;28;20171;-59
2023/11/09 05:47:39;;;;;;;0.40;0.40;;;3.90;99.90;;;;;;5014708;28;20406;-60
2023/11/09 05:50:05;;;;;;;1.37;0.93;;;3.90;99.90;;;;;;5014536;28;20222;-60
2023/11/09 05:52:31;;;;;;;0.40;0.40;;;4.00;99.90;;;;;;5014685;28;20204;-60
2023/11/09 05:54:57;;;;;;;0.40;0.40;;;3.90;99.90;;;;;;5014319;28;20223;-60
2023/11/09 05:57:23;;;;;;;10.90;0.95;;;3.90;99.90;;;;;;5014308;28;20946;-60
2023/11/09 05:59:48;;;;;;;0.40;0.40;;;4.10;99.90;;;;;;5014464;28;20219;-60
2023/11/09 06:02:14;;;;;;;0.40;0.40;;;4.10;99.90;;;;;;5014536;28;20267;-60
2023/11/09 06:04:42;;;;;;;0.30;0.30;;;4.00;99.90;;;;;;5014423;28;20458;-61
2023/11/09 06:07:11;;;;;;;0.80;0.40;;;4.00;99.90;;;;;;5013974;28;20270;-60
2023/11/09 06:09:40;;;;;;;0.40;0.40;;;4.10;99.90;;;;;;5014113;28;20268;-60
2023/11/09 06:12:09;;;;;;;0.50;0.50;;;4.10;99.90;;;;;;5014101;28;20171;-60
2023/11/09 06:14:37;;;;;;;0.50;0.50;;;4.10;99.90;;;;;;5014393;28;20238;-59
2023/11/09 06:17:02;;;;;;;0.85;0.50;;;4.10;99.90;;;;;;5013852;28;20688;-60
2023/11/09 06:19:29;;;;;;;1.03;0.60;;;4.10;99.90;;;;;;5013466;28;20176;-61
2023/11/09 06:21:56;;;;;;;1.60;1.38;;;4.30;99.90;;;;;;5013644;28;20463;-61
2023/11/09 06:24:22;;;;;;;1.25;1.25;;;4.30;99.90;;;;;;5013790;28;20207;-61
2023/11/09 06:26:50;;;;;;;1.43;1.33;;;4.30;99.90;;;;;;5013595;28;20768;-61
2023/11/09 06:29:16;;;;;;;3.35;2.08;;;4.30;99.90;;;;;;5013865;28;20214;-60
2023/11/09 06:31:43;;;;;;;2.33;2.17;;;4.20;99.90;;;;;;5013867;28;20168;-60
2023/11/09 06:34:14;;;;;;;0.93;0.93;;;4.30;99.90;;;;;;5013864;28;20207;-60
2023/11/09 06:36:43;;;;;;;1.08;1.02;;;4.30;99.90;;;;;;5013862;28;20187;-59
2023/11/09 06:39:16;;;;;;;0.77;0.77;;;4.40;99.90;;;;;;5013577;28;20250;-61
2023/11/09 06:41:45;;;;;;;0.40;0.40;;;4.50;99.90;;;;;;5013939;28;20179;-60
2023/11/09 06:44:12;;;;;;;0.90;0.90;;;4.50;99.90;;;;;;5013629;28;20692;-60
2023/11/09 06:46:38;;;;;;;0.73;0.73;;;4.50;99.90;;;;;;5013818;28;20187;-59
2023/11/09 06:49:06;;;;;;;1.10;0.93;;;4.60;99.90;;;;;;5013426;28;20175;-60
2023/11/09 06:51:33;;;;;;;0.60;0.47;;;4.70;99.90;;;;;;5012943;28;20417;-60
2023/11/09 06:53:58;;;;;;;2.78;1.48;;;4.70;99.90;;;;;;5013624;28;20635;-60
2023/11/09 06:56:24;;;;;;;1.60;1.50;;;4.80;99.90;;;;;;5013139;28;20171;-60
2023/11/09 06:58:50;;;;;;;2.00;0.80;;;4.80;99.90;;;;;;5013390;28;20237;-60
2023/11/09 07:01:15;;;;;;;2.50;2.10;;;4.80;99.90;;;;;;5013497;28;20565;-60
2023/11/09 07:03:41;;;;;;;0.50;0.40;;;4.80;99.90;;;;;;5013361;28;20216;-60
2023/11/09 07:06:06;;;;;;;0.60;0.60;;;4.90;99.90;;;;;;5013284;28;20716;-60
2023/11/09 07:08:33;;;;;;;2.00;1.77;;;4.90;99.90;;;;;;5013336;28;20226;-61
2023/11/09 07:10:59;;;;;;;1.30;0.93;;;4.60;99.90;;;;;;5013249;28;20168;-60
2023/11/09 07:13:25;;;;;;;0.60;0.60;;;4.40;99.90;;;;;;5013158;28;20615;-60
2023/11/09 07:15:52;;;;;;;0.90;0.90;;;4.40;99.90;;;;;;5012920;28;20810;-61
2023/11/09 07:18:18;;;;;;;0.63;0.63;;;4.50;99.90;;;;;;5012175;28;20184;-61
2023/11/09 07:20:44;;;;;;;0.82;0.82;;;4.70;99.90;;;;;;5013075;28;20175;-60
2023/11/09 07:23:11;;;;;;;0.83;0.50;;;5.00;99.90;;;;;;5012908;28;20703;-60
2023/11/09 07:25:36;;;;;;;2.25;0.65;;;5.20;99.90;;;;;;5012860;28;20173;-60
2023/11/09 07:28:07;;;;;;;0.80;0.80;;;5.50;99.90;;;;;;5012834;28;20179;-60
2023/11/09 07:30:32;;;;;;;0.70;0.70;;;5.60;99.90;;;;;;5012833;28;20406;-60
2023/11/09 07:33:03;;;;;;;0.50;0.50;;;5.80;99.90;;;;;;5012686;28;20195;-60
2023/11/09 07:35:29;;;;;;;1.10;0.50;;;5.90;99.90;;;;;;5012877;28;20407;-60
2023/11/09 07:37:58;;;;;;;2.38;1.25;;;6.10;99.90;;;;;;5012734;28;20183;-61
2023/11/09 07:40:26;;;;;;;0.93;0.93;;;6.30;99.90;;;;;;5012555;28;20666;-60
2023/11/09 07:42:52;;;;;;;0.50;0.40;;;6.40;99.90;;;;;;5012686;28;20188;-60
2023/11/09 07:45:18;;;;;;;0.60;0.60;;;6.50;99.90;;;;;;5012586;28;20175;-60
2023/11/09 07:47:45;;;;;;;0.40;0.40;;;6.60;99.90;;;;;;5012515;28;20547;-60
2023/11/09 07:50:11;;;;;;;0.65;0.65;;;6.70;99.90;;;;;;5012628;28;20211;-60
2023/11/09 07:52:37;;;;;;;0.40;0.40;;;6.70;99.90;;;;;;5012677;28;20192;-60
2023/11/09 07:55:07;;;;;;;1.83;1.60;;;6.70;99.90;;;;;;5012389;28;20663;-60
2023/11/09 07:57:34;;;;;;;0.55;0.55;;;6.70;99.90;;;;;;5012534;28;20177;-59
2023/11/09 08:00:00;;;;;;;0.57;0.57;;;6.90;99.90;;;;;;5012243;28;20653;-60
2023/11/09 08:02:26;;;;;;;0.60;0.60;;;7.00;99.90;;;;;;5012372;28;20182;-60
2023/11/09 08:04:54;;;;;;;0.40;0.40;;;7.10;99.90;;;;;;5012280;28;20212;-59
2023/11/09 08:07:21;;;;;;;0.30;0.30;;;7.10;99.90;;;;;;5012231;28;20185;-59
2023/11/09 08:09:47;;;;;;;0.40;0.40;;;7.20;99.90;;;;;;5012214;28;20187;-59
2023/11/09 08:12:13;;;;;;;1.13;1.10;;;7.30;99.90;;;;;;5012332;28;20551;-60
2023/11/09 08:14:42;;;;;;;0.30;0.30;;;7.30;99.90;;;;;;5012155;28;20786;-60
2023/11/09 08:17:08;;;;;;;0.30;0.30;;;7.30;99.90;;;;;;5012071;28;20695;-61
2023/11/09 08:19:35;;;;;;;0.50;0.50;;;7.40;99.90;;;;;;5012027;28;20257;-62
2023/11/09 08:22:00;;;;;;;0.68;0.68;;;7.40;99.90;;;;;;5012191;28;20178;-62
2023/11/09 08:24:26;;;;;;;0.80;0.80;;;7.50;99.90;;;;;;5011966;28;20225;-62
2023/11/09 08:26:52;;;;;;;0.47;0.47;;;7.50;99.90;;;;;;5012073;28;20716;-62
2023/11/09 08:29:17;;;;;;;0.47;0.47;;;7.50;99.90;;;;;;5011901;28;20171;-61
2023/11/09 08:31:43;;;;;;;0.30;0.30;;;7.50;99.90;;;;;;5012038;28;20296;-62
2023/11/09 08:34:10;;;;;;;0.40;0.40;;;7.50;99.90;;;;;;5011881;28;20485;-62
2023/11/09 08:36:36;;;;;;;0.60;0.60;;;7.70;99.90;;;;;;5012108;28;20225;-61
2023/11/09 08:39:02;;;;;;;0.40;0.40;;;7.70;99.90;;;;;;5011269;28;20601;-62
2023/11/09 08:41:31;;;;;;;0.55;0.55;;;7.70;99.90;;;;;;5011886;28;20420;-62
2023/11/09 08:43:57;;;;;;;0.38;0.38;;;7.70;99.90;;;;;;5011070;28;20641;-62
2023/11/09 08:46:23;;;;;;;0.93;0.90;;;7.70;99.90;;;;;;5011697;28;20180;-61
2023/11/09 08:48:49;;;;;;;0.55;0.55;;;7.70;99.90;;;;;;5011602;28;20241;-62
2023/11/09 08:51:15;;;;;;;0.30;0.30;;;7.70;99.90;;;;;;5011465;28;20179;-61
2023/11/09 08:53:41;;;;;;;0.50;0.50;;;7.70;99.90;;;;;;5011158;28;20226;-62
2023/11/09 08:56:07;;;;;;;0.40;0.40;;;7.80;99.90;;;;;;5010791;28;20183;-59
2023/11/09 08:58:36;;;;;;;1.30;0.97;;;7.80;99.90;;;;;;5011496;28;20506;-61
2023/11/09 09:01:04;;;;;;;0.47;0.47;;;7.80;99.90;;;;;;5011864;28;20511;-62
2023/11/09 09:03:32;;;;;;;1.50;1.40;;;7.70;99.90;;;;;;5011834;28;20221;-61
2023/11/09 09:05:59;;;;;;;1.08;1.08;;;7.70;99.90;;;;;;5011659;28;20175;-61
2023/11/09 09:08:26;;;;;;;1.27;1.27;;;7.80;99.90;;;;;;5011540;28;20234;-61
2023/11/09 09:10:58;;;;;;;1.83;1.08;;;7.80;99.90;;;;;;5011767;28;20199;-60
2023/11/09 09:13:26;;;;;;;1.23;0.82;;;7.90;99.90;;;;;;5011634;28;20202;-61
2023/11/09 09:15:53;;;;;;;0.40;0.40;;;8.00;99.90;;;;;;5011644;28;20168;-60
2023/11/09 09:18:20;;;;;;;0.82;0.82;;;8.00;99.90;;;;;;5011532;28;20179;-61
2023/11/09 09:20:46;;;;;;;1.42;1.33;;;8.10;99.90;;;;;;5011535;28;20549;-60
2023/11/09 09:23:13;;;;;;;3.05;1.73;;;8.30;99.90;;;;;;5011019;28;20215;-61
2023/11/09 09:25:39;;;;;;;2.25;2.15;;;8.40;99.90;;;;;;5011225;28;20183;-62
2023/11/09 09:28:05;;;;;;;0.87;0.87;;;8.50;99.90;;;;;;5011401;28;20191;-62
2023/11/09 09:30:30;;;;;;;0.67;0.67;;;8.60;99.90;;;;;;5011375;28;20558;-62
2023/11/09 09:32:56;;;;;;;0.80;0.80;;;8.70;99.90;;;;;;5010996;28;20573;-61
2023/11/09 09:35:26;;;;;;;1.15;0.80;;;8.70;99.90;;;;;;5011402;28;20171;-61
2023/11/09 09:37:52;;;;;;;1.02;1.02;;;8.80;99.90;;;;;;5011333;28;20335;-61
2023/11/09 09:40:25;;;;;;;0.40;0.40;;;8.80;99.90;;;;;;5011460;28;20254;-62
2023/11/09 09:42:52;;;;;;;0.68;0.60;;;8.80;99.90;;;;;;5013666;28;20406;-60
2023/11/09 09:45:32;;;;;;;0.95;0.95;;;8.80;99.90;;;;;;5066911;23;20329;-67
2023/11/09 09:48:01;;;;;;;0.70;0.70;;;8.80;99.90;;;;;;5014440;28;20190;-65
2023/11/09 09:50:37;;;;;;;0.93;0.60;;;8.90;99.90;;;;;;5013487;28;20700;-66
2023/11/09 09:53:04;;;;;;;1.20;1.10;;;8.90;99.90;;;;;;5014615;28;20314;-65
2023/11/09 09:55:30;;;;;;;0.82;0.82;;;8.90;99.90;;;;;;5014520;28;20187;-66
2023/11/09 09:57:59;;;;;;;0.50;0.50;;;9.00;99.90;;;;;;5014650;28;20261;-66
2023/11/09 10:00:28;;;;;;;0.50;0.50;;;9.00;99.90;;;;;;5014351;28;20163;-65
2023/11/09 10:02:57;;;;;;;1.35;1.25;;;9.10;99.90;;;;;;5014358;28;20195;-67
2023/11/09 10:05:27;;;;;;;1.02;0.93;;;9.20;99.90;;;;;;5013653;28;20565;-65
2023/11/09 10:08:13;;;;;;;1.75;1.65;;;9.20;99.90;;;;;;5014215;28;20614;-66
2023/11/09 10:10:44;;;;;;;0.70;0.70;;;9.30;99.90;;;;;;5014399;28;20664;-66
2023/11/09 10:13:13;;;;;;;0.98;0.98;;;9.30;99.90;;;;;;5014382;28;20191;-67
2023/11/09 10:15:41;;;;;;;0.88;0.88;;;9.30;99.90;;;;;;5014129;28;20586;-65
2023/11/09 10:18:12;;;;;;;0.70;0.70;;;9.30;99.90;;;;;;5014010;28;20175;-66
2023/11/09 10:20:40;;;;;;;0.70;0.68;;;9.50;99.90;;;;;;5014716;28;20171;-66
2023/11/09 10:23:11;;;;;;;1.02;0.80;;;9.50;99.90;;;;;;5012797;28;20241;-66
2023/11/09 10:25:37;;;;;;;0.63;0.63;;;9.40;99.90;;;;;;5013998;28;20226;-66
2023/11/09 10:28:07;;;;;;;0.77;0.77;;;9.50;99.90;;;;;;5013961;28;20195;-66
2023/11/09 10:30:46;;;;;;;0.50;0.50;;;9.60;99.90;;;;;;5013744;28;20410;-65
2023/11/09 10:33:14;;;;;;;1.17;0.98;;;9.70;99.90;;;;;;5014014;28;20179;-66
2023/11/09 10:35:41;;;;;;;3.15;1.85;;;9.70;99.90;;;;;;5013761;28;20215;-66
2023/11/09 10:38:09;;;;;;;2.58;2.38;;;9.80;99.90;;;;;;5013736;28;20668;-67
2023/11/09 10:40:36;;;;;;;4.00;0.93;;;9.60;99.90;;;;;;5013710;28;20175;-66
2023/11/09 10:43:04;;;;;;;1.25;1.15;;;9.60;99.90;;;;;;5013492;28;20241;-66
2023/11/09 10:45:36;;;;;;;0.80;0.80;;;9.70;99.90;;;;;;5013474;28;20206;-66
2023/11/09 10:48:10;;;;;;;1.88;0.88;;;9.80;99.90;;;;;;5013534;28;20179;-66
2023/11/09 10:50:49;;;;;;;1.38;1.27;;;9.90;99.90;;;;;;5013505;28;20210;-67
2023/11/09 10:53:19;;;;;;;0.73;0.73;;;9.90;99.90;;;;;;5012534;28;20179;-67
2023/11/09 10:55:53;;;;;;;1.65;1.25;;;10.00;99.60;;;;;;5013572;28;20230;-67
2023/11/09 10:58:20;;;;;;;0.57;0.57;;;10.20;99.90;;;;;;5013388;28;20179;-66
2023/11/09 11:00:59;;;;;;;2.53;1.08;;;10.10;99.30;;;;;;5013402;28;20171;-67
2023/11/09 11:03:28;;;;;;;0.60;0.60;;;10.00;99.10;;;;;;5013375;28;20282;-65
2023/11/09 11:06:02;;;;;;;1.42;0.57;;;9.90;99.60;;;;;;5013055;28;20259;-65
2023/11/09 11:08:35;;;;;;;0.40;0.40;;;9.70;99.90;;;;;;5013023;28;20262;-66
2023/11/09 11:11:04;;;;;;;0.30;0.30;;;9.70;99.90;;;;;;5012828;28;20203;-66
2023/11/09 11:13:35;;;;;;;0.60;0.60;;;9.70;99.90;;;;;;5012402;28;20912;-67
2023/11/09 11:16:27;;;;;;;0.40;0.40;;;9.70;99.90;;;;;;5011665;28;20719;-67
2023/11/09 11:19:06;;;;;;;0.40;0.40;;;9.60;99.90;;;;;;5011047;28;20178;-66
2023/11/09 11:21:57;;;;;;;0.40;0.40;;;9.50;99.90;;;;;;5013059;28;20174;-66
2023/11/09 11:24:49;;;;;;;0.43;0.43;;;9.30;99.90;;;;;;5012588;28;20605;-66
2023/11/09 11:27:42;;;;;;;0.40;0.40;;;9.20;99.90;;;;;;5012726;28;20229;-67
2023/11/09 11:30:27;;;;;;;0.40;0.40;;;9.30;99.90;;;;;;5012055;28;20250;-65
2023/11/09 11:32:55;;;;;;;0.40;0.40;;;9.10;99.90;;;;;;5011415;28;20183;-67
2023/11/09 11:35:43;;;;;;;0.50;0.50;;;9.10;99.90;;;;;;5012655;28;20286;-66
2023/11/09 11:38:28;;;;;;;1.25;0.60;;;9.20;99.90;;;;;;5013190;28;20803;-66
2023/11/09 11:41:12;;;;;;;0.40;0.40;;;9.30;99.90;;;;;;5011752;28;20654;-66
2023/11/09 11:43:42;;;;;;;0.40;0.40;;;9.40;99.90;;;;;;5011312;28;20203;-66
2023/11/09 11:46:13;;;;;;;1.95;0.50;;;9.50;99.90;;;;;;5012409;28;20207;-66
2023/11/09 11:48:53;;;;;;;0.50;0.50;;;9.40;99.90;;;;;;5012360;28;20171;-67
2023/11/09 11:51:19;;;;;;;0.55;0.55;;;9.50;99.90;;;;;;5012480;28;20168;-66
2023/11/09 11:53:52;;;;;;;0.68;0.45;;;9.40;99.90;;;;;;5012408;28;20209;-66
2023/11/09 11:56:24;;;;;;;0.40;0.40;;;9.40;99.90;;;;;;5012518;28;20556;-66
2023/11/09 11:58:55;;;;;;;4.78;0.50;;;9.40;99.90;;;;;;5012182;28;20697;-66
2023/11/09 12:01:28;;;;;;;0.40;0.40;;;9.30;99.90;;;;;;5012540;28;20179;-66
2023/11/09 12:03:58;;;;;;;9.15;0.70;;;9.30;99.90;;;;;;5012014;28;20619;-65
2023/11/09 12:06:28;;;;;;;0.40;0.40;;;9.30;99.90;;;;;;5011978;28;20199;-67
2023/11/09 12:08:58;;;;;;;1.88;0.93;;;9.20;99.90;;;;;;5011970;28;20174;-65
2023/11/09 12:11:26;;;;;;;0.40;0.40;;;9.20;99.90;;;;;;5012195;28;20182;-66
2023/11/09 12:13:54;;;;;;;0.40;0.40;;;9.20;99.90;;;;;;5012365;28;20187;-66
2023/11/09 12:16:24;;;;;;;0.45;0.45;;;9.30;99.90;;;;;;5011870;28;20210;-66
2023/11/09 12:18:53;;;;;;;0.45;0.45;;;9.30;99.90;;;;;;5011569;28;20179;-66
2023/11/09 12:21:27;;;;;;;0.40;0.40;;;9.40;99.90;;;;;;5012273;28;20179;-66
2023/11/09 12:23:56;;;;;;;1.57;1.57;;;9.50;99.90;;;;;;5011950;28;20264;-66
2023/11/09 12:26:23;;;;;;;0.40;0.40;;;9.40;99.90;;;;;;5011850;28;20463;-66
2023/11/09 12:28:50;;;;;;;0.30;0.30;;;9.40;99.90;;;;;;5011839;28;20670;-66
2023/11/09 12:31:20;;;;;;;4.68;3.38;;;9.40;99.90;;;;;;5011896;28;20178;-67
2023/11/09 12:34:18;;;;;;;0.90;0.88;;;9.40;99.90;;;;;;5012011;28;20229;-65
2023/11/09 12:36:51;;;;;;;0.75;0.63;;;9.60;99.90;;;;;;4968290;28;20570;-66
2023/11/09 12:39:29;;;;;;;0.40;0.40;;;9.70;99.90;;;;;;5011674;28;20179;-65
2023/11/09 12:41:59;;;;;;;1.10;0.50;;;9.80;99.90;;;;;;5011840;28;20653;-66
2023/11/09 12:44:29;;;;;;;0.50;0.50;;;9.70;99.90;;;;;;5011503;28;20211;-65
2023/11/09 12:47:12;;;;;;;0.40;0.40;;;9.70;99.90;;;;;;5011836;28;20185;-66
2023/11/09 12:49:40;;;;;;;1.38;1.20;;;9.70;99.90;;;;;;5011653;28;20167;-67
2023/11/09 12:52:07;;;;;;;0.75;0.60;;;9.60;99.90;;;;;;5011791;28;20172;-66
2023/11/09 12:54:39;;;;;;;1.25;0.82;;;9.70;99.90;;;;;;5011630;28;20710;-65
2023/11/09 12:57:06;;;;;;;3.40;2.90;;;9.50;99.90;;;;;;5012347;28;20255;-67
2023/11/09 12:59:34;;;;;;;0.90;0.90;;;9.50;99.90;;;;;;5011477;28;20594;-67
2023/11/09 13:02:03;;;;;;;0.85;0.85;;;9.40;99.90;;;;;;5011638;28;20195;-67
2023/11/09 13:04:40;;;;;;;0.60;0.55;;;9.40;99.90;;;;;;5011282;28;20230;-67
2023/11/09 13:07:10;;;;;;;0.60;0.60;;;9.20;99.90;;;;;;5011680;28;20179;-66
2023/11/09 13:09:38;;;;;;;0.40;0.40;;;9.10;99.90;;;;;;5011357;28;20680;-65
2023/11/09 13:12:27;;;;;;;0.80;0.50;;;9.10;99.90;;;;;;5011551;28;20186;-67
2023/11/09 13:17:51;;;;;;;0.80;0.80;;;9.20;99.90;;;;;;5002190;28;20673;-66